DNMMDGAA

Guest
Details From DNMM - Lagos Murtala Muhammed
To DGAA - Kotoka Intl
Flight Number -
Tags Generated
Created
Modified
Stats Distance 219 nm / 405 km
Max Altitude 0 ft / 0 m
Waypoints 3
Social Downloads 2
Likes 0
Share VATSIM

Download

Looking for another format? Having issues loading an existing format? Contact us
Advertisement - Login to hide

Notes

Generated

Route

DNMM ACC DGAA

ID Type Via Altitude Latitude Longitude Leg Dist Tot Dist Heading (true) Name
O DNMM APT - 0 ft / 0 m 6.59701˚ 3.32914˚ - 0 nm - -
ACC VOR - 0 ft / 0 m 5.63411˚ -0.15534˚ 215 nm 215 nm 255° / 254° ACCRA VOR-DME
O DGAA APT - 0 ft / 0 m 5.59096˚ -0.17264˚ 2 nm 218 nm 202° / 202° -

Altitude Profile

Advertisement - Login to hide

Weather


0- 5 10 15 20 25 30 35+ Temperature / ° C

Clouds and Precipitation
Forecast for 2017-12-16 18:00 UTC. Updated 2 hours ago

Ground ~20,000 ft ~40,000 ft Winds

DNMM

Details ICAO DNMM (LOS)
Name Lagos Murtala Muhammed
Region Nigeria
Timezone Africa/Lagos (UTC+1.0)
Stats Elevation 135 ft / 41 m (AMSL)
Location 6.577380° 3.321347°
Runways 2
Magnetic Variation 2.225° W

METAR

DNMM 161600Z 16007KT 7000 FEW014 32/25 Q1009 NOSIG

Decode

TAF

TAF DNMM 160945Z 1612/1718 26010KT 8000 BKN013 TEMPO 1613/1617 TS BKN013 FEW020CB BECMG 1617/1619 VRB02KT FEW011 TEMPO 1704/1708 4000 HZ

Decode

Departure Runways

ID Width Length Bearing (true) Bearing (mag) Surface Threshold Offset Overrun Length
18L 148 ft / 45 m 9,049 ft / 2,758 m 180.00° 182.22° Asphalt 300 ft / 91 m 0 ft / 0 m
18R 197 ft / 60 m 12,867 ft / 3,922 m 180.00° 182.22° Asphalt 600 ft / 183 m 0 ft / 0 m
36L 197 ft / 60 m 12,867 ft / 3,922 m 0.00° 2.22° Asphalt 600 ft / 183 m 0 ft / 0 m
36R 148 ft / 45 m 9,049 ft / 2,758 m 0.00° 2.22° Asphalt 300 ft / 91 m 0 ft / 0 m

DGAA

Details ICAO DGAA (ACC)
Name Accra_Kotoka_Intl
Region Ghana
Timezone Africa/Accra (UTC+0.0)
Stats Elevation 204 ft / 62 m (AMSL)
Location 5.602578° -0.167602°
Runways 1
Magnetic Variation 3.420° W

METAR

DGAA 161600Z 19008KT 160V240 8000 -RA SCT013 BKN034 27/22 Q1008 NOSIG

Decode

TAF

TAF TAF DGAA 161100Z 1612/1718 17015KT 4000 HZ SCT020 BECMG 1618/1620 7000 FEW014 FM170000 27005KT 5000 BR NSC

Decode

Destination Runways

ID Width Length Bearing (true) Bearing (mag) Surface Threshold Offset Overrun Length
03 200 ft / 61 m 11,176 ft / 3,406 m 22.00° 25.42° Asphalt 0 ft / 0 m 351 ft / 107 m
21 200 ft / 61 m 11,176 ft / 3,406 m 202.00° 205.42° Asphalt 1,355 ft / 413 m 0 ft / 0 m

Approach Navaids

Runway Type Ident Frequency Range Bearing (true) Bearing (mag) Slope Elevation
21 Localiser IACA 109.90 MHz 18 nm / 33 km 202.10° 205.52° - 204 ft / 62 m (AMSL)
21 Glidescope IACA 109.90 MHz 10 nm / 19 km 203.00° 206.42° 3.00° 204 ft / 62 m (AMSL)

Popular Alternatives